Aviation Digital Data Service (ADDS)

Output produced by METARs form (1412 UTC 10 August 2022)
found at http://www.aviationweather.gov/metar/data/
 
LFSB 101400Z VRB07KT CAVOK 31/07 Q1019 NOSIG
LFSB 101330Z 08006KT 030V170 CAVOK 31/08 Q1020 NOSIG
TAF AMD LFSB 101128Z 1012/1112 36008KT CAVOK 
     BECMG 1012/1014 10010KT 
     BECMG 1020/1023 VRB03KT 
     BECMG 1107/1110 36007KT
       
LSZH 101350Z 03011KT 340V050 CAVOK 28/10 Q1022 NOSIG
LSZH 101320Z 05010KT 010V080 CAVOK 27/09 Q1022 NOSIG
TAF LSZH 101125Z 1012/1118 06012KT CAVOK TX28/1015Z TN13/1104Z TX29/1115Z 
     PROB30 
     TEMPO 1012/1015 06014G25KT 
     BECMG 1016/1018 05005KT 
     BECMG 1021/1023 34004KT 
     BECMG 1106/1109 05008KT
       
LSGG 101350Z VRB06KT 9999 FEW060 30/11 Q1019 NOSIG
LSGG 101320Z 08005KT 030V160 9999 FEW060 29/10 Q1019 NOSIG
TAF LSGG 101125Z 1012/1118 06010KT CAVOK TX30/1015Z TN15/1104Z TX31/1115Z 
     PROB30 1013/1015 9999 FEW050 
     BECMG 1017/1020 VRB02KT CAVOK 
     BECMG 1107/1109 06010KT
       
LSZB 101350Z 32007KT 260V010 CAVOK 29/14 Q1020
LSZB 101320Z 04005KT CAVOK 28/14 Q1020
TAF LSZB 101125Z 1012/1021 33005KT CAVOK
       
LSZA 101350Z VRB03KT 9999 FEW070 30/14 Q1018
LSZA 101320Z 20005KT 9999 FEW060 30/15 Q1019
TAF LSZA 101125Z 1012/1021 20005KT 9999 FEW060 SCT100 
     PROB40 1016/1021 FEW060TCU 
     PROB30 
     TEMPO 1018/1021 TSRA SCT055CB
       
LSZG 101350Z 09014KT CAVOK 29/10 Q1020
LSZG 101320Z 09014KT CAVOK 28/10 Q1020
TAF LSZG 101125Z 1012/1021 09014KT CAVOK 
     PROB40 
     TEMPO 1012/1016 08015G25KT 
     BECMG 1017/1019 07004KT
       
LSZR 101350Z 34004KT CAVOK 27/14 Q1021 RMK J
LSZR 101320Z 34004KT CAVOK 27/14 Q1021 RMK J
TAF LSZR 101125Z 1012/1021 30006KT CAVOK
       
LSGS 101350Z 25014KT 9999 FEW120 32/12 Q1017
LSGS 101320Z 26015KT 9999 FEW120 31/11 Q1017
TAF LSGS 101125Z 1012/1021 24010KT 9999 FEW100 
     BECMG 1017/1019 VRB02KT
       
LSGC 101350Z 09007KT 010V150 CAVOK 25/09 Q1023 CAUTION HIGH DENSITY ALTITUDE
LSGC 101320Z 12007KT 040V180 CAVOK 25/10 Q1023
TAF LSGC 101125Z 1012/1021 05009KT CAVOK